KSUA/SUA METAR and TAF weather

Enter ICAO airport designator
Station Type Date Time Source
KSUA METAR 2022/11/27 07:55 UTC NOAA

KSUA 270755Z AUTO 17003KT CLR 24/21 A3001 RMK AO2 T02380212 PWINO


Station Type Date Time Source
KSUA Decoded METAR 2022/11/27 07:55 UTC NOAA

Stuart, Witham Field Airport, FL, United States (KSUA) 27-10-54N 080-13-16W
Nov 27, 2022 - 02:55 AM EST / 2022.11.27 0755 UTC
Wind: from the S (170 degrees) at 3 MPH (3 KT):0
Sky conditions: clear
Temperature: 74.8 F (23.8 C)
Dew Point: 70.2 F (21.2 C)
Relative Humidity: 85%
Pressure (altimeter): 30.01 in. Hg (1016 hPa)
ob: KSUA 270755Z AUTO 17003KT CLR 24/21 A3001 RMK AO2 T02380212 PWINO
cycle: 8

Station Type Date Time Source
KSUA TAF 2022/11/27 06:42 UTC NOAA

TAF KSUA 270540Z 2706/2806 15004KT P6SM SKC
TEMPO 2712/2715 BKN010 BKN025
FM271500 21008KT P6SM SCT030 BKN250
FM280000 27005KT P6SM SCT030
AMD NOT SKED

Example: see airport list